Latest Weather Observations for Noarlunga

IDS60801

Issued at 2:31 pm CDT Tuesday 28 March 2017 (issued every 30 minutes, with the page automatically refreshed every 10 minutes)

About weather observations | Map of weather stations | Latest weather observations for SA | Other Formats
Station Details ID: 023885 Name: NOARLUNGA Lat: -35.16 Lon: 138.51 Height: 55.0 m
Data from the previous 72 hours. | See also: Recent months at Noarlunga
Date/Time
CDT
Temp
°C
App
Temp
°C
Dew
Point
°C
Rel
Hum
%
Delta-T
°C
Wind Press
QNH
hPa
Press
MSL
hPa
Rain since
9am
mm
Dir  Spd
km/h
Gust
km/h
Spd
kts
Gust
kts
28/02:30pm 21.5 19.7 10.9 51 5.8 NNW 11 19 6 10 - - -
28/02:00pm 21.9 19.7 10.7 49 6.2 NW 13 20 7 11 - - 0.0
28/01:30pm 21.7 19.4 10.5 49 6.1 NW 13 20 7 11 - - 0.0
28/01:00pm 21.0 18.6 9.9 49 6.0 NW 13 22 7 12 - - 0.0
28/12:30pm 20.7 17.9 9.9 50 5.8 NW 15 24 8 13 - - 0.0
28/12:00pm 20.8 18.2 10.6 52 5.6 NW 15 22 8 12 - - 0.0
28/11:30am 20.4 17.7 10.2 52 5.5 WNW 15 26 8 14 - - 0.0
28/11:00am 20.1 17.3 9.9 52 5.5 WNW 15 24 8 13 - - 0.0
28/10:30am 19.9 17.6 10.6 55 5.1 WNW 13 22 7 12 - - 0.0
28/10:00am 19.7 17.5 10.7 56 4.9 WNW 13 20 7 11 - - 0.0
28/09:30am 19.2 17.1 11.3 60 4.3 W 13 20 7 11 - - 0.0
28/09:00am 18.8 16.7 11.1 61 4.2 WNW 13 20 7 11 - - 0.4
28/08:30am 18.6 17.3 12.4 67 3.5 WNW 11 17 6 9 - - 0.4
28/08:00am 17.8 17.1 12.0 69 3.2 WNW 7 15 4 8 - - 0.4
28/07:30am 17.3 16.3 10.9 66 3.4 WNW 7 13 4 7 - - 0.4
28/07:00am 16.4 15.6 11.1 71 2.9 NW 6 11 3 6 - - 0.4
28/06:30am 16.4 15.5 10.7 69 3.0 W 6 9 3 5 - - 0.4
28/06:00am 16.8 15.7 10.6 67 3.3 W 7 13 4 7 - - 0.4
28/05:30am 16.8 16.0 11.1 69 3.1 W 6 11 3 6 - - 0.4
28/05:00am 17.0 15.9 10.8 67 3.3 WNW 7 13 4 7 - - 0.4
28/04:30am 17.1 16.3 11.2 68 3.2 WNW 6 9 3 5 - - 0.4
28/04:00am 17.8 16.5 11.4 66 3.5 WNW 9 15 5 8 - - 0.4
28/03:30am 17.9 16.6 11.2 65 3.6 W 9 15 5 8 - - 0.4
28/03:00am 17.9 16.0 11.7 67 3.4 WNW 13 20 7 11 - - 0.4
28/02:30am 17.9 16.6 11.2 65 3.6 W 9 17 5 9 - - 0.4
28/02:00am 18.1 16.3 11.0 63 3.8 W 11 17 6 9 - - 0.4
28/01:30am 18.3 16.8 11.8 66 3.6 W 11 15 6 8 - - 0.4
28/01:00am 18.1 17.4 11.9 67 3.4 W 7 17 4 9 - - 0.4
28/12:30am 18.3 16.2 11.1 63 3.9 W 13 20 7 11 - - 0.4
28/12:00am 18.3 16.5 10.9 62 4.0 W 11 20 6 11 - - 0.4
 
Date/Time
CDT
Temp
°C
App
Temp
°C
Dew
Point
°C
Rel
Hum
%
Delta-T
°C
Wind Press
QNH
hPa
Press
MSL
hPa
Rain since
9am
mm
Dir  Spd
km/h
Gust
km/h
Spd
kts
Gust
kts
27/11:30pm 18.6 16.6 11.4 63 3.9 WSW 13 20 7 11 - - 0.4
27/11:00pm 18.6 17.1 11.9 65 3.7 W 11 19 6 10 - - 0.4
27/10:30pm 18.7 16.8 11.8 64 3.8 W 13 22 7 12 - - 0.4
27/10:00pm 18.4 16.6 11.0 62 4.0 W 11 19 6 10 - - 0.4
27/09:30pm 18.4 16.4 11.5 64 3.8 W 13 24 7 13 - - 0.4
27/09:00pm 18.4 16.5 11.9 66 3.6 W 13 22 7 12 - - 0.4
27/08:30pm 18.5 16.7 12.0 66 3.6 W 13 20 7 11 - - 0.4
27/08:00pm 18.9 16.9 11.5 62 4.1 W 13 20 7 11 - - 0.4
27/07:30pm 19.1 17.2 11.7 62 4.1 W 13 22 7 12 - - 0.4
27/07:00pm 19.6 17.3 11.6 60 4.4 W 15 24 8 13 - - 0.4
27/06:30pm 20.1 16.8 11.6 58 4.7 W 20 35 11 19 - - 0.4
27/06:00pm 20.7 17.5 11.3 55 5.2 W 19 30 10 16 - - 0.4
27/05:30pm 20.9 17.0 12.1 57 4.9 W 24 35 13 19 - - 0.4
27/05:00pm 21.1 17.3 11.2 53 5.5 W 22 37 12 20 - - 0.4
27/04:30pm 21.6 17.8 11.0 51 5.9 W 22 32 12 17 - - 0.4
27/04:00pm 22.2 17.9 10.7 48 6.3 W 24 37 13 20 - - 0.4
27/03:30pm 21.3 16.7 11.1 52 5.6 W 26 37 14 20 - - 0.4
27/03:00pm 21.8 17.5 10.9 50 6.0 W 24 37 13 20 - - 0.4
27/02:30pm 21.5 17.5 10.6 50 6.0 W 22 33 12 18 - - 0.4
27/02:00pm 21.6 17.7 10.7 50 6.0 W 22 35 12 19 - - 0.4
27/01:30pm 21.4 17.5 10.9 51 5.8 W 22 33 12 18 - - 0.4
27/01:00pm 21.7 17.5 9.9 47 6.4 W 22 32 12 17 - - 0.2
27/12:30pm 21.5 17.6 10.9 51 5.8 W 22 35 12 19 - - 0.2
27/12:00pm 20.5 17.5 12.5 60 4.5 W 20 35 11 19 - - 0.2
27/11:30am 19.6 16.6 11.9 61 4.3 W 19 30 10 16 - - 0.2
27/11:00am 20.2 17.0 11.4 57 4.9 W 19 32 10 17 - - 0.2
27/10:30am 18.9 16.3 13.7 72 3.0 W 20 37 11 20 - - 0.2
27/10:00am 18.7 15.5 13.1 70 3.2 W 22 33 12 18 - - 0.0
27/09:30am 20.4 17.3 12.1 59 4.6 W 20 35 11 19 - - 0.0
27/09:00am 20.8 17.0 12.5 59 4.7 W 24 35 13 19 - - 0.0
27/08:30am 20.5 17.0 13.5 64 4.0 W 24 37 13 20 - - 0.0
27/08:00am 20.3 17.7 14.9 71 3.2 WNW 22 35 12 19 - - 0.0
27/07:30am 20.3 18.5 14.4 69 3.4 WNW 17 28 9 15 - - 0.0
27/07:00am 20.4 18.7 16.2 77 2.5 WNW 20 33 11 18 - - 0.0
27/06:30am 20.6 19.8 17.2 81 2.1 WNW 17 30 9 16 - - 0.0
27/06:00am 20.6 20.9 17.8 84 1.7 WNW 13 20 7 11 - - 0.0
27/05:30am 20.9 20.1 17.9 83 1.9 W 19 28 10 15 - - 0.0
27/05:00am 21.0 20.1 17.8 82 2.0 W 19 30 10 16 - - 0.0
27/04:30am 21.3 20.4 17.7 80 2.2 W 19 32 10 17 - - 0.0
27/04:00am 21.8 21.7 17.8 78 2.5 W 15 26 8 14 - - 0.0
27/03:30am 23.0 21.9 17.2 70 3.6 WNW 19 30 10 16 - - 0.0
27/03:13am 26.4 23.3 16.6 55 6.1 NW 28 50 15 27 - - 0.0
27/03:05am 31.4 26.3 10.7 28 11.9 NNW 28 50 15 27 - - 0.0
27/03:00am 32.8 27.6 8.9 23 13.5 N 26 41 14 22 - - 0.0
27/02:38am 33.3 27.3 8.7 22 13.9 NNE 30 50 16 27 - - 0.0
27/02:30am 33.4 27.1 8.8 22 13.9 NNE 32 50 17 27 - - 0.0
27/02:29am 33.4 27.4 8.8 22 13.9 NNE 30 50 16 27 - - 0.0
27/02:00am 33.6 28.1 9.0 22 13.9 NNE 28 44 15 24 - - 0.0
27/01:32am 34.0 28.2 9.3 22 14.1 NNE 30 48 16 26 - - 0.0
27/01:30am 34.0 28.2 9.3 22 14.1 NNE 30 43 16 23 - - 0.0
27/01:19am 34.0 28.5 9.3 22 14.1 NNE 28 50 15 27 - - 0.0
27/01:00am 33.6 29.0 9.6 23 13.7 NNE 24 35 13 19 - - 0.0
27/12:30am 33.3 28.8 10.0 24 13.4 NE 24 35 13 19 - - 0.0
27/12:00am 33.0 29.0 10.4 25 13.1 NE 22 33 12 18 - - 0.0
 
Date/Time
CDT
Temp
°C
App
Temp
°C
Dew
Point
°C
Rel
Hum
%
Delta-T
°C
Wind Press
QNH
hPa
Press
MSL
hPa
Rain since
9am
mm
Dir  Spd
km/h
Gust
km/h
Spd
kts
Gust
kts
26/11:30pm 32.2 29.4 11.4 28 12.2 NE 17 24 9 13 - - 0.0
26/11:00pm 31.6 29.7 11.9 30 11.6 ENE 13 19 7 10 - - 0.0
26/10:30pm 31.1 28.9 12.0 31 11.2 ENE 15 19 8 10 - - 0.0
26/10:00pm 31.4 29.1 11.7 29 11.5 ENE 15 20 8 11 - - 0.0
26/09:30pm 31.3 29.5 12.2 31 11.3 ENE 13 19 7 10 - - 0.0
26/09:00pm 31.5 29.6 11.8 30 11.6 ENE 13 20 7 11 - - 0.0
26/08:30pm 31.8 30.0 12.1 30 11.6 ENE 13 20 7 11 - - 0.0
26/08:00pm 31.7 29.6 12.5 31 11.4 ENE 15 22 8 12 - - 0.0
26/07:30pm 31.8 30.1 12.6 31 11.4 ENE 13 20 7 11 - - 0.0
26/07:00pm 32.2 30.5 12.4 30 11.8 ENE 13 19 7 10 - - 0.0
26/06:30pm 32.4 30.7 12.6 30 11.8 NE 13 22 7 12 - - 0.0
26/06:00pm 32.5 31.2 13.7 32 11.4 ENE 13 24 7 13 - - 0.0
26/05:30pm 31.9 30.4 14.1 34 10.8 ENE 15 28 8 15 - - 0.0
26/05:00pm 31.6 30.4 15.1 36 10.2 E 15 24 8 13 - - 0.0
26/04:30pm 30.9 32.0 14.5 37 10.0 WSW 2 4 1 2 - - 0.0
26/04:00pm 31.0 31.6 14.2 36 10.2 WSW 4 11 2 6 - - 0.0
26/03:30pm 29.7 29.4 12.6 35 10.1 WNW 6 7 3 4 - - 0.0
26/03:00pm 30.6 30.8 14.3 37 9.9 WSW 6 9 3 5 - - 0.0
26/02:30pm 30.3 31.0 15.6 41 9.1 W 6 7 3 4 - - 0.0
26/02:00pm 29.4 30.7 16.2 44 8.2 NW 4 6 2 3 - - 0.0
26/01:30pm 29.2 30.3 15.7 44 8.3 WNW 4 6 2 3 - - 0.0
26/01:00pm 30.0 30.4 13.7 37 9.8 NNW 4 7 2 4 - - 0.0
26/12:30pm 29.5 29.9 13.7 38 9.5 NE 4 9 2 5 - - 0.0
26/12:00pm 29.4 29.5 14.0 39 9.3 NE 6 11 3 6 - - 0.0
26/11:30am 28.2 29.5 15.1 44 8.0 SE 2 7 1 4 - - 0.0
26/11:00am 26.5 27.0 15.5 50 6.7 SE 7 11 4 6 - - 0.0
26/10:30am 25.2 24.9 15.5 55 5.9 ESE 11 15 6 8 - - 0.0
26/10:00am 23.9 23.4 15.9 61 4.9 ESE 13 19 7 10 - - 0.0
26/09:30am 22.3 22.4 15.6 66 4.0 ESE 9 15 5 8 - - 0.0
26/09:00am 21.4 21.1 15.5 69 3.5 ESE 11 17 6 9 - - 0.0
26/08:30am 20.9 20.6 15.4 71 3.3 ESE 11 15 6 8 - - 0.0
26/08:00am 20.8 20.5 15.4 71 3.2 E 11 15 6 8 - - 0.0
26/07:30am 20.4 20.8 15.4 73 3.0 ESE 7 13 4 7 - - 0.0
26/07:00am 20.1 20.2 15.5 75 2.7 ESE 9 13 5 7 - - 0.0
26/06:30am 19.8 20.0 15.7 77 2.4 ESE 9 15 5 8 - - 0.0
26/06:00am 19.2 19.7 15.5 79 2.2 SE 7 13 4 7 - - 0.0
26/05:30am 19.8 20.2 15.2 75 2.7 ESE 7 9 4 5 - - 0.0
26/05:00am 20.0 20.9 15.2 74 2.8 ENE 4 6 2 3 - - 0.0
26/04:30am 20.0 20.9 15.2 74 2.8 ENE 4 6 2 3 - - 0.0
26/04:00am 19.8 20.4 15.2 75 2.7 ENE 6 9 3 5 - - 0.0
26/03:30am 19.5 19.9 15.2 76 2.5 ENE 7 11 4 6 - - 0.0
26/03:00am 19.4 19.7 15.1 76 2.5 ESE 7 11 4 6 - - 0.0
26/02:30am 19.6 19.2 15.3 76 2.5 ENE 11 17 6 9 - - 0.0
26/02:00am 19.3 18.5 15.2 77 2.4 ESE 13 17 7 9 - - 0.0
26/01:30am 19.4 18.6 15.1 76 2.5 ESE 13 20 7 11 - - 0.0
26/01:00am 19.8 19.0 15.2 75 2.7 E 13 19 7 10 - - 0.0
26/12:30am 19.4 18.6 15.1 76 2.5 E 13 17 7 9 - - 0.0
26/12:00am 19.7 18.5 15.1 75 2.7 E 15 20 8 11 - - 0.0
 
Date/Time
CDT
Temp
°C
App
Temp
°C
Dew
Point
°C
Rel
Hum
%
Delta-T
°C
Wind Press
QNH
hPa
Press
MSL
hPa
Rain since
9am
mm
Dir  Spd
km/h
Gust
km/h
Spd
kts
Gust
kts
25/11:30pm 20.1 19.7 15.1 73 2.9 E 11 19 6 10 - - 0.0
25/11:00pm 19.9 19.5 15.1 74 2.8 E 11 19 6 10 - - 0.0
25/10:30pm 19.9 18.3 15.1 74 2.8 ESE 17 24 9 13 - - 0.0
25/10:00pm 20.3 19.1 15.1 72 3.1 E 15 24 8 13 - - 0.0
25/09:30pm 20.7 18.6 14.8 69 3.5 E 19 28 10 15 - - 0.0
25/09:00pm 21.7 21.0 15.3 67 3.8 E 13 19 7 10 - - 0.0
25/08:30pm 22.3 23.1 15.9 67 3.9 SE 6 9 3 5 - - 0.0
25/08:00pm 22.5 22.7 15.8 66 4.0 E 9 19 5 10 - - 0.0
25/07:30pm 22.7 23.5 15.8 65 4.2 SE 6 9 3 5 - - 0.0
25/07:00pm 22.6 24.2 15.9 66 4.0 WNW 2 4 1 2 - - 0.0
25/06:30pm 22.8 24.4 15.9 65 4.2 SSW 2 4 1 2 - - 0.0
25/06:00pm 22.8 24.0 16.8 69 3.7 WSW 6 9 3 5 - - 0.0
25/05:30pm 23.3 24.6 16.1 64 4.4 WNW 4 6 2 3 - - 0.0
25/05:00pm 23.6 24.4 16.4 64 4.4 WSW 7 13 4 7 - - 0.0
25/04:30pm 23.6 24.1 16.6 65 4.3 W 9 15 5 8 - - 0.0
25/04:00pm 24.3 24.9 16.8 63 4.6 WSW 9 13 5 7 - - 0.0
25/03:30pm 25.0 25.8 16.4 59 5.3 W 7 11 4 6 - - 0.0
25/03:00pm 24.8 24.9 16.5 60 5.1 WSW 11 15 6 8 - - 0.0

Other Formats:

Comma delimited format used in spreadsheet applications
http://www.bom.gov.au/fwo/IDS60801/IDS60801.94808.axf

JavaScript Object Notation format (JSON) in row-major order
http://www.bom.gov.au/fwo/IDS60801/IDS60801.94808.json